Time;durP1;ratioP1;P1;durP2;ratioP2;P2;SDS_P1;SDS_P2;PMS_P1;PMS_P2;Temp;Humidity;BMP_temperature;BMP_pressure;BME280_temperature;BME280_humidity;BME280_pressure;Samples;Min_cycle;Max_cycle;Signal;HPM_P1;HPM_P2
2020/12/03 00:01:52;;;;;;;;;;;21.70;53.60;;;;;;5051360;28;1193;-69
2020/12/03 00:04:17;;;;;;;;;;;21.70;53.60;;;;;;5051317;28;1902;-68
2020/12/03 00:06:47;;;;;;;;;;;21.70;53.60;;;;;;5066757;28;1298;-70
2020/12/03 00:09:13;;;;;;;;;;;21.60;53.60;;;;;;5051117;28;1055;-69
2020/12/03 00:11:43;;;;;;;;;;;21.70;53.70;;;;;;5066787;28;1208;-70
2020/12/03 00:14:09;;;;;;;;;;;21.60;53.70;;;;;;5066723;28;1055;-69
2020/12/03 00:16:34;;;;;;;;;;;21.60;53.70;;;;;;5051307;28;1047;-69
2020/12/03 00:19:00;;;;;;;;;;;21.60;53.70;;;;;;5049877;28;1306;-70
2020/12/03 00:21:36;;;;;;;;;;;21.60;53.80;;;;;;5051303;28;1297;-67
2020/12/03 00:24:02;;;;;;;;;;;21.60;53.80;;;;;;5050011;28;1902;-69
2020/12/03 00:26:28;;;;;;;;;;;21.60;53.80;;;;;;5050777;28;1166;-69
2020/12/03 00:28:53;;;;;;;;;;;21.60;53.90;;;;;;5050869;28;1064;-70
2020/12/03 00:31:19;;;;;;;;;;;21.60;54.00;;;;;;5050881;28;1284;-69
2020/12/03 00:33:44;;;;;;;;;;;21.60;54.00;;;;;;5051366;28;1063;-69
2020/12/03 00:36:10;;;;;;;;;;;21.50;53.90;;;;;;5050993;28;1040;-68
2020/12/03 00:38:35;;;;;;;;;;;21.50;54.00;;;;;;5066095;28;1122;-69
2020/12/03 00:41:01;;;;;;;;;;;21.50;54.00;;;;;;5066814;28;1260;-69
2020/12/03 00:43:26;;;;;;;;;;;21.50;54.00;;;;;;5050494;28;1948;-69
2020/12/03 00:45:51;;;;;;;;;;;21.50;54.10;;;;;;5051122;28;1036;-69
2020/12/03 00:48:17;;;;;;;;;;;21.50;54.10;;;;;;5050548;28;1032;-69
2020/12/03 00:50:43;;;;;;;;;;;21.50;54.10;;;;;;5051238;28;1716;-70
2020/12/03 00:53:08;;;;;;;;;;;21.50;54.20;;;;;;5050115;28;1169;-70
2020/12/03 00:55:34;;;;;;;;;;;21.50;54.20;;;;;;5050405;28;1127;-69
2020/12/03 00:57:59;;;;;;;;;;;21.50;54.20;;;;;;5072666;28;1077;-69
2020/12/03 01:00:25;;;;;;;;;;;21.50;54.20;;;;;;5074060;28;1363;-69
2020/12/03 01:02:50;;;;;;;;;;;21.40;54.20;;;;;;5074458;28;1071;-67
2020/12/03 01:05:16;;;;;;;;;;;21.40;54.20;;;;;;5074857;28;1969;-69
2020/12/03 01:07:41;;;;;;;;;;;21.40;54.30;;;;;;5073543;28;1115;-69
2020/12/03 01:10:08;;;;;;;;;;;21.40;54.30;;;;;;5073827;28;1074;-69
2020/12/03 01:12:33;;;;;;;;;;;21.40;54.30;;;;;;5073282;28;1250;-69
2020/12/03 01:14:59;;;;;;;;;;;21.40;54.30;;;;;;5073901;28;1054;-69
2020/12/03 01:17:24;;;;;;;;;;;21.40;54.40;;;;;;5074083;28;1023;-70
2020/12/03 01:19:50;;;;;;;;;;;21.40;54.40;;;;;;5068239;28;1165;-70
2020/12/03 01:22:15;;;;;;;;;;;21.40;54.40;;;;;;5052943;28;1347;-69
2020/12/03 01:24:41;;;;;;;;;;;21.40;54.40;;;;;;5054149;28;1963;-69
2020/12/03 01:27:06;;;;;;;;;;;21.40;54.50;;;;;;5064311;28;1059;-69
2020/12/03 01:29:32;;;;;;;;;;;21.30;54.40;;;;;;5053791;28;1051;-70
2020/12/03 01:31:57;;;;;;;;;;;21.30;54.40;;;;;;5054105;28;1346;-69
2020/12/03 01:34:23;;;;;;;;;;;21.30;54.50;;;;;;5054203;28;957;-68
2020/12/03 01:36:49;;;;;;;;;;;21.30;54.50;;;;;;5052465;28;1291;-70
2020/12/03 01:39:14;;;;;;;;;;;21.30;54.50;;;;;;5053746;28;1153;-69
2020/12/03 01:41:40;;;;;;;;;;;21.30;54.50;;;;;;5069141;28;1359;-70
2020/12/03 01:44:06;;;;;;;;;;;21.30;54.50;;;;;;5053278;28;1906;-68
2020/12/03 01:46:31;;;;;;;;;;;21.30;54.60;;;;;;5068797;28;1137;-69
2020/12/03 01:49:01;;;;;;;;;;;21.30;54.60;;;;;;5068995;28;1175;-69
2020/12/03 01:51:37;;;;;;;;;;;21.30;54.60;;;;;;5064276;28;1323;-70
2020/12/03 01:54:03;;;;;;;;;;;21.30;54.60;;;;;;5045905;28;1111;-70
2020/12/03 01:56:35;;;;;;;;;;;21.30;54.70;;;;;;5053245;28;1154;-70
2020/12/03 01:59:00;;;;;;;;;;;21.30;54.70;;;;;;5052977;28;1067;-69
2020/12/03 02:01:26;;;;;;;;;;;21.30;54.70;;;;;;5068631;28;1228;-68
2020/12/03 02:03:51;;;;;;;;;;;21.30;54.70;;;;;;5067611;28;1913;-69
2020/12/03 02:06:20;;;;;;;;;;;21.30;54.70;;;;;;5068895;28;1150;-69
2020/12/03 02:08:46;;;;;;;;;;;21.20;54.70;;;;;;5053074;28;1154;-67
2020/12/03 02:11:11;;;;;;;;;;;21.20;54.80;;;;;;5051992;28;1217;-70
2020/12/03 02:13:37;;;;;;;;;;;21.20;54.80;;;;;;5053095;28;1134;-69
2020/12/03 02:16:02;;;;;;;;;;;21.20;54.80;;;;;;5052951;28;1052;-69
2020/12/03 02:18:28;;;;;;;;;;;21.20;55.30;;;;;;5052574;28;1036;-69
2020/12/03 02:20:53;;;;;;;;;;;21.20;54.80;;;;;;5053070;28;1280;-70
2020/12/03 02:23:19;;;;;;;;;;;21.20;54.80;;;;;;5050520;28;1918;-67
2020/12/03 02:25:44;;;;;;;;;;;21.20;54.80;;;;;;5054801;28;913;-68
2020/12/03 02:28:10;;;;;;;;;;;21.20;54.80;;;;;;5053873;28;1147;-69
2020/12/03 02:30:35;;;;;;;;;;;21.20;54.70;;;;;;5072967;28;1408;-69
2020/12/03 02:33:01;;;;;;;;;;;21.20;54.70;;;;;;5054077;28;1673;-70
2020/12/03 02:35:26;;;;;;;;;;;21.30;54.70;;;;;;5059389;28;1196;-70
2020/12/03 02:37:52;;;;;;;;;;;21.30;54.70;;;;;;5049786;28;1115;-69
2020/12/03 02:40:17;;;;;;;;;;;21.30;54.60;;;;;;5055095;28;1304;-69
2020/12/03 02:42:43;;;;;;;;;;;21.30;55.20;;;;;;5059401;28;1290;-69
2020/12/03 02:45:08;;;;;;;;;;;21.30;54.60;;;;;;5053634;28;2078;-70
2020/12/03 02:47:34;;;;;;;;;;;21.30;54.80;;;;;;5052468;28;1243;-69
2020/12/03 02:49:59;;;;;;;;;;;21.30;54.60;;;;;;5053499;28;1317;-69
2020/12/03 02:52:25;;;;;;;;;;;21.30;54.60;;;;;;5051530;28;1386;-69
2020/12/03 02:54:50;;;;;;;;;;;21.30;54.60;;;;;;5053887;28;1139;-69
2020/12/03 02:57:16;;;;;;;;;;;21.30;54.60;;;;;;5052003;28;1223;-69
2020/12/03 02:59:42;;;;;;;;;;;21.30;54.70;;;;;;5055586;28;1268;-68
2020/12/03 03:02:07;;;;;;;;;;;21.30;54.70;;;;;;5053026;28;1283;-69
2020/12/03 03:04:32;;;;;;;;;;;21.30;55.30;;;;;;5052185;28;1902;-68
2020/12/03 03:06:58;;;;;;;;;;;21.30;54.70;;;;;;5053148;28;1336;-69
2020/12/03 03:09:23;;;;;;;;;;;21.20;54.70;;;;;;5052484;28;1224;-70
2020/12/03 03:11:49;;;;;;;;;;;21.20;54.70;;;;;;5051821;28;1300;-68
2020/12/03 03:14:15;;;;;;;;;;;21.20;54.80;;;;;;5035096;28;1127;-69
2020/12/03 03:16:40;;;;;;;;;;;21.20;54.80;;;;;;5057181;28;1207;-70
2020/12/03 03:19:06;;;;;;;;;;;21.20;54.80;;;;;;5057555;28;1290;-69
2020/12/03 03:21:31;;;;;;;;;;;21.20;54.80;;;;;;5054377;28;1272;-68
2020/12/03 03:23:57;;;;;;;;;;;21.20;54.80;;;;;;5052702;28;1894;-69
2020/12/03 03:26:22;;;;;;;;;;;21.20;54.80;;;;;;5053449;28;1188;-70
2020/12/03 03:28:48;;;;;;;;;;;21.20;54.80;;;;;;5051705;28;1233;-69
2020/12/03 03:31:13;;;;;;;;;;;21.20;54.90;;;;;;5053021;28;1294;-70
2020/12/03 03:33:39;;;;;;;;;;;21.20;54.90;;;;;;5053067;28;1111;-70
2020/12/03 03:36:04;;;;;;;;;;;21.20;54.90;;;;;;5052857;28;1092;-69
2020/12/03 03:38:30;;;;;;;;;;;21.20;55.00;;;;;;5067556;28;1015;-69
2020/12/03 03:40:55;;;;;;;;;;;21.10;54.90;;;;;;5068478;28;1365;-69
2020/12/03 03:43:20;;;;;;;;;;;21.10;55.00;;;;;;5053151;28;1902;-69
2020/12/03 03:45:46;;;;;;;;;;;21.10;55.00;;;;;;5052871;28;1115;-69
2020/12/03 03:48:11;;;;;;;;;;;21.10;55.00;;;;;;5052880;28;1190;-69
2020/12/03 03:50:37;;;;;;;;;;;21.10;55.00;;;;;;5068279;28;1279;-70
2020/12/03 03:53:02;;;;;;;;;;;21.10;55.00;;;;;;5063562;28;1294;-69
2020/12/03 03:55:28;;;;;;;;;;;21.10;55.10;;;;;;5044004;28;1162;-69
2020/12/03 03:57:53;;;;;;;;;;;21.10;55.10;;;;;;5051743;28;1171;-68
2020/12/03 04:00:19;;;;;;;;;;;21.10;55.10;;;;;;5068111;28;1319;-69
2020/12/03 04:02:45;;;;;;;;;;;21.10;55.10;;;;;;5067994;28;1114;-69
2020/12/03 04:05:11;;;;;;;;;;;21.10;55.20;;;;;;5052663;28;1969;-69
2020/12/03 04:07:36;;;;;;;;;;;21.10;55.70;;;;;;5050055;28;1441;-68
2020/12/03 04:10:03;;;;;;;;;;;21.10;55.20;;;;;;5052627;28;1119;-69
2020/12/03 04:12:28;;;;;;;;;;;21.10;55.20;;;;;;5052444;28;1205;-68
2020/12/03 04:14:54;;;;;;;;;;;21.10;55.20;;;;;;5067793;28;1118;-68
2020/12/03 04:17:19;;;;;;;;;;;21.10;55.10;;;;;;5051928;28;1087;-69
2020/12/03 04:19:45;;;;;;;;;;;21.20;55.00;;;;;;5067690;28;1208;-68
2020/12/03 04:22:10;;;;;;;;;;;21.30;54.80;;;;;;5051002;28;1343;-69
2020/12/03 04:24:35;;;;;;;;;;;21.40;54.70;;;;;;5067653;28;1906;-69
2020/12/03 04:27:01;;;;;;;;;;;21.50;54.50;;;;;;5050773;28;1146;-69
2020/12/03 04:29:26;;;;;;;;;;;21.60;54.30;;;;;;5052564;28;1107;-68
2020/12/03 04:31:52;;;;;;;;;;;21.70;54.10;;;;;;5067498;28;1280;-70
2020/12/03 04:34:17;;;;;;;;;;;21.80;53.90;;;;;;5051399;28;1381;-69
2020/12/03 04:36:43;;;;;;;;;;;21.90;53.60;;;;;;5051784;28;1090;-68
2020/12/03 04:39:08;;;;;;;;;;;22.00;53.40;;;;;;5052245;28;1032;-70
2020/12/03 04:41:34;;;;;;;;;;;22.20;53.20;;;;;;5051959;28;1370;-69
2020/12/03 04:43:59;;;;;;;;;;;22.30;52.90;;;;;;5052200;28;1932;-70
2020/12/03 04:46:34;;;;;;;;;;;22.30;52.70;;;;;;5050524;28;1162;-70
2020/12/03 04:49:23;;;;;;;;;;;22.40;52.50;;;;;;5051968;28;1099;-70
2020/12/03 04:52:07;;;;;;;;;;;22.50;52.40;;;;;;5051794;28;1414;-70
2020/12/03 04:54:35;;;;;;;;;;;22.50;52.20;;;;;;5050682;28;1301;-70
2020/12/03 04:57:12;;;;;;;;;;;22.60;52.10;;;;;;5066964;28;1192;-70
2020/12/03 04:59:42;;;;;;;;;;;22.70;52.10;;;;;;5052351;28;1166;-69
2020/12/03 05:02:08;;;;;;;;;;;22.70;52.00;;;;;;5066812;28;1280;-69
2020/12/03 05:04:52;;;;;;;;;;;22.80;51.90;;;;;;5050729;28;1902;-69
2020/12/03 05:07:17;;;;;;;;;;;22.80;51.80;;;;;;5051474;28;1158;-69
2020/12/03 05:09:43;;;;;;;;;;;22.80;51.70;;;;;;5067271;28;1397;-70
2020/12/03 05:12:13;;;;;;;;;;;22.80;51.60;;;;;;5049863;28;1284;-69
2020/12/03 05:14:38;;;;;;;;;;;22.90;51.60;;;;;;5067446;28;1102;-69
2020/12/03 05:17:13;;;;;;;;;;;22.90;51.60;;;;;;5049416;28;1337;-68
2020/12/03 05:19:43;;;;;;;;;;;22.90;51.60;;;;;;5050550;28;1159;-69
2020/12/03 05:22:10;;;;;;;;;;;23.00;51.50;;;;;;5030821;28;1428;-69
2020/12/03 05:24:35;;;;;;;;;;;22.90;51.40;;;;;;5042396;28;1898;-66
2020/12/03 05:27:01;;;;;;;;;;;23.00;51.50;;;;;;5049515;28;1183;-66
2020/12/03 05:29:26;;;;;;;;;;;23.00;51.40;;;;;;5067679;28;1142;-67
2020/12/03 05:31:52;;;;;;;;;;;23.00;51.40;;;;;;5051109;28;1346;-66
2020/12/03 05:34:18;;;;;;;;;;;23.00;51.40;;;;;;5067341;28;1504;-66
2020/12/03 05:36:53;;;;;;;;;;;23.00;51.40;;;;;;5051466;28;1195;-69
2020/12/03 05:39:21;;;;;;;;;;;23.00;51.40;;;;;;5053263;28;1039;-67
2020/12/03 05:41:51;;;;;;;;;;;23.00;51.40;;;;;;5053875;28;1346;-65
2020/12/03 05:44:20;;;;;;;;;;;23.00;51.50;;;;;;5055290;28;1986;-65
2020/12/03 05:46:46;;;;;;;;;;;23.00;51.60;;;;;;5054795;28;1135;-66
2020/12/03 05:49:17;;;;;;;;;;;23.00;51.60;;;;;;5054928;28;1158;-65
2020/12/03 05:51:42;;;;;;;;;;;22.90;51.60;;;;;;5063403;28;1359;-67
2020/12/03 05:54:08;;;;;;;;;;;23.00;51.70;;;;;;5048694;28;1096;-67
2020/12/03 05:56:33;;;;;;;;;;;22.90;51.70;;;;;;5054992;28;1068;-67
2020/12/03 05:59:11;;;;;;;;;;;22.90;51.70;;;;;;5054142;28;1111;-67
2020/12/03 06:01:37;;;;;;;;;;;22.90;51.70;;;;;;5054981;28;1217;-67
2020/12/03 06:04:11;;;;;;;;;;;22.90;51.80;;;;;;5053634;28;1914;-67
2020/12/03 06:06:56;;;;;;;;;;;22.90;51.80;;;;;;5054615;28;1147;-67
2020/12/03 06:09:30;;;;;;;;;;;22.80;51.90;;;;;;5069173;28;1342;-68
2020/12/03 06:12:02;;;;;;;;;;;22.80;51.90;;;;;;5054244;28;1296;-66
2020/12/03 06:14:27;;;;;;;;;;;22.80;52.00;;;;;;5054763;28;1265;-67
2020/12/03 06:16:57;;;;;;;;;;;22.80;52.00;;;;;;5053930;28;1123;-66
2020/12/03 06:19:42;;;;;;;;;;;22.80;52.10;;;;;;5069606;28;1102;-67
2020/12/03 06:22:15;;;;;;;;;;;22.70;52.10;;;;;;5054313;28;1370;-67
2020/12/03 06:24:50;;;;;;;;;;;22.70;52.20;;;;;;5053353;28;1963;-67
2020/12/03 06:27:19;;;;;;;;;;;22.70;52.30;;;;;;5053416;28;1152;-67
2020/12/03 06:29:53;;;;;;;;;;;22.70;52.30;;;;;;5054273;28;1240;-66
2020/12/03 06:32:41;;;;;;;;;;;22.70;52.40;;;;;;5069474;28;1276;-66
2020/12/03 06:35:16;;;;;;;;;;;22.70;52.40;;;;;;5069429;28;1616;-66
2020/12/03 06:37:42;;;;;;;;;;;22.60;52.40;;;;;;5053415;28;1080;-67
2020/12/03 06:40:09;;;;;;;;;;;22.60;52.50;;;;;;5052641;28;1135;-67
2020/12/03 06:42:39;;;;;;;;;;;22.60;52.50;;;;;;5069489;28;1241;-66
2020/12/03 06:45:22;;;;;;;;;;;22.50;52.60;;;;;;5069162;28;1902;-66
2020/12/03 06:48:05;;;;;;;;;;;22.50;52.60;;;;;;5053323;28;1148;-66
2020/12/03 06:50:45;;;;;;;;;;;22.50;52.70;;;;;;5041170;28;1673;-66
2020/12/03 06:53:18;;;;;;;;;;;22.50;52.70;;;;;;5039286;28;1131;-66
2020/12/03 06:55:59;;;;;;;;;;;22.50;52.80;;;;;;5067787;28;1075;-66
2020/12/03 06:58:37;;;;;;;;;;;22.40;52.80;;;;;;5052399;28;1096;-66
2020/12/03 07:01:25;;;;;;;;;;;22.40;52.90;;;;;;5053266;28;1264;-66
2020/12/03 07:04:09;;;;;;;;;;;22.40;52.90;;;;;;5047633;28;1965;-66
2020/12/03 07:06:41;;;;;;;;;;;22.40;53.00;;;;;;5053161;28;1104;-66
2020/12/03 07:09:21;;;;;;;;;;;22.40;53.00;;;;;;5068753;28;1165;-66
2020/12/03 07:11:52;;;;;;;;;;;22.40;53.00;;;;;;5050555;28;1264;-66
2020/12/03 07:14:49;;;;;;;;;;;22.30;53.10;;;;;;5059401;28;1039;-66
2020/12/03 07:17:23;;;;;;;;;;;22.30;53.10;;;;;;5055282;28;1357;-66
2020/12/03 07:19:48;;;;;;;;;;;22.30;53.20;;;;;;5050607;28;1146;-66
2020/12/03 07:22:16;;;;;;;;;;;22.30;53.20;;;;;;5055191;28;1295;-66
2020/12/03 07:24:42;;;;;;;;;;;22.30;53.20;;;;;;5071873;28;1989;-65
2020/12/03 07:27:08;;;;;;;;;;;22.30;53.30;;;;;;5047248;28;959;-65
2020/12/03 07:29:46;;;;;;;;;;;22.30;53.30;;;;;;5053109;28;1103;-66
2020/12/03 07:32:20;;;;;;;;;;;22.20;53.30;;;;;;5052871;28;1169;-66
2020/12/03 07:34:46;;;;;;;;;;;22.20;53.30;;;;;;5052080;28;1155;-66
2020/12/03 07:37:18;;;;;;;;;;;22.20;53.40;;;;;;5062657;28;1130;-65
2020/12/03 07:39:43;;;;;;;;;;;22.20;53.40;;;;;;5051867;28;1118;-66
2020/12/03 07:42:13;;;;;;;;;;;22.20;53.40;;;;;;5065669;28;1483;-66
2020/12/03 07:44:41;;;;;;;;;;;22.20;53.50;;;;;;5064092;28;1902;-66
2020/12/03 07:47:33;;;;;;;;;;;22.10;53.50;;;;;;5058070;28;1231;-66
2020/12/03 07:50:28;;;;;;;;;;;22.10;53.50;;;;;;5066483;28;1150;-66
2020/12/03 07:53:20;;;;;;;;;;;22.10;53.60;;;;;;5051116;28;1229;-66
2020/12/03 07:55:45;;;;;;;;;;;22.10;53.60;;;;;;5049969;28;1318;-67
2020/12/03 07:58:29;;;;;;;;;;;22.10;53.70;;;;;;5051278;28;981;-67
2020/12/03 08:00:55;;;;;;;;;;;22.00;53.70;;;;;;5051438;28;1370;-67
2020/12/03 08:03:39;;;;;;;;;;;22.00;53.70;;;;;;5049342;28;1400;-67
2020/12/03 08:06:08;;;;;;;;;;;22.00;53.80;;;;;;5051555;28;1107;-67
2020/12/03 08:08:34;;;;;;;;;;;22.00;53.80;;;;;;5051577;28;1111;-67
2020/12/03 08:10:59;;;;;;;;;;;22.00;53.80;;;;;;5067204;28;1276;-66
2020/12/03 08:13:31;;;;;;;;;;;22.00;53.90;;;;;;5067905;28;1142;-66
2020/12/03 08:15:57;;;;;;;;;;;21.90;53.80;;;;;;5051769;28;1269;-66
2020/12/03 08:18:33;;;;;;;;;;;21.90;53.90;;;;;;5052188;28;1178;-65
2020/12/03 08:20:58;;;;;;;;;;;21.90;53.90;;;;;;5042821;28;1359;-66
2020/12/03 08:23:24;;;;;;;;;;;21.90;53.90;;;;;;5049764;28;1961;-67
2020/12/03 08:25:49;;;;;;;;;;;21.90;53.90;;;;;;5070675;28;1258;-67
2020/12/03 08:28:17;;;;;;;;;;;21.90;53.90;;;;;;5044025;28;1829;-67
2020/12/03 08:30:47;;;;;;;;;;;22.00;53.90;;;;;;5052308;28;1787;-67
2020/12/03 08:33:15;;;;;;;;;;;22.00;53.90;;;;;;5049729;28;1174;-67
2020/12/03 08:35:41;;;;;;;;;;;22.00;53.80;;;;;;5061064;28;992;-67
2020/12/03 08:38:06;;;;;;;;;;;22.10;53.80;;;;;;5067318;28;1126;-66
2020/12/03 08:40:33;;;;;;;;;;;22.00;53.70;;;;;;5067367;28;1276;-66
2020/12/03 08:43:03;;;;;;;;;;;22.10;53.60;;;;;;5067843;28;1161;-66
2020/12/03 08:45:30;;;;;;;;;;;22.20;53.60;;;;;;5051455;28;1902;-67
2020/12/03 08:47:55;;;;;;;;;;;22.20;53.50;;;;;;5067124;28;1102;-67
2020/12/03 08:50:20;;;;;;;;;;;22.20;53.40;;;;;;5067632;28;1268;-67
2020/12/03 08:52:46;;;;;;;;;;;22.20;53.30;;;;;;5038828;28;1103;-67
2020/12/03 08:55:12;;;;;;;;;;;22.30;53.30;;;;;;5052154;28;1095;-67
2020/12/03 08:57:43;;;;;;;;;;;22.30;53.30;;;;;;5067024;28;1126;-67
2020/12/03 09:00:11;;;;;;;;;;;22.30;53.20;;;;;;5067144;28;1118;-67
2020/12/03 09:02:36;;;;;;;;;;;22.30;53.20;;;;;;5053033;28;1359;-66
2020/12/03 09:05:02;;;;;;;;;;;22.30;53.20;;;;;;5062584;28;1965;-66
2020/12/03 09:07:29;;;;;;;;;;;22.30;53.20;;;;;;5050662;28;1219;-66
2020/12/03 09:09:54;;;;;;;;;;;22.30;53.20;;;;;;5048459;28;1235;-66
2020/12/03 09:12:22;;;;;;;;;;;22.30;53.10;;;;;;5051261;28;1379;-66
2020/12/03 09:14:48;;;;;;;;;;;22.30;53.10;;;;;;5059642;28;1235;-66
2020/12/03 09:17:14;;;;;;;;;;;22.30;53.20;;;;;;5058873;28;1152;-66
2020/12/03 09:19:40;;;;;;;;;;;22.30;53.10;;;;;;5053255;28;1238;-66
2020/12/03 09:22:06;;;;;;;;;;;22.30;53.20;;;;;;5053848;28;1354;-66
2020/12/03 09:24:32;;;;;;;;;;;22.30;53.20;;;;;;5071323;28;1956;-66
2020/12/03 09:27:04;;;;;;;;;;;22.30;53.20;;;;;;5070435;28;1106;-66
2020/12/03 09:29:29;;;;;;;;;;;22.30;53.20;;;;;;5071166;28;1141;-67
2020/12/03 09:31:55;;;;;;;;;;;22.30;53.20;;;;;;5055120;28;1272;-66
2020/12/03 09:34:21;;;;;;;;;;;22.20;53.20;;;;;;5064975;28;1163;-66
2020/12/03 09:36:46;;;;;;;;;;;22.20;53.30;;;;;;5069902;28;1311;-67
2020/12/03 09:39:11;;;;;;;;;;;22.20;53.30;;;;;;5055145;28;1138;-66
2020/12/03 09:41:37;;;;;;;;;;;22.20;53.30;;;;;;5067957;28;1240;-67
2020/12/03 09:44:07;;;;;;;;;;;22.20;53.40;;;;;;5063868;28;1894;-66
2020/12/03 09:46:33;;;;;;;;;;;22.20;53.40;;;;;;5075182;28;1074;-66
2020/12/03 09:48:59;;;;;;;;;;;22.20;53.50;;;;;;5073751;28;1106;-66
2020/12/03 09:51:24;;;;;;;;;;;22.10;53.40;;;;;;5051566;28;1355;-67
2020/12/03 09:53:53;;;;;;;;;;;22.10;53.50;;;;;;5054939;28;1155;-66
2020/12/03 09:56:18;;;;;;;;;;;22.10;53.50;;;;;;5067436;28;1895;-67
2020/12/03 09:58:44;;;;;;;;;;;22.10;53.60;;;;;;5064934;28;1126;-66
2020/12/03 10:01:09;;;;;;;;;;;22.10;53.60;;;;;;5068895;28;1264;-67
2020/12/03 10:03:44;;;;;;;;;;;22.10;53.60;;;;;;5053701;28;1914;-66
2020/12/03 10:06:31;;;;;;;;;;;22.10;53.60;;;;;;5068630;28;948;-66
2020/12/03 10:09:15;;;;;;;;;;;22.10;53.60;;;;;;5052204;28;1100;-66
2020/12/03 10:11:50;;;;;;;;;;;22.10;53.60;;;;;;5052449;28;1681;-66
2020/12/03 10:14:21;;;;;;;;;;;22.20;53.60;;;;;;5048244;28;1162;-66
2020/12/03 10:16:47;;;;;;;;;;;22.20;53.50;;;;;;5049195;28;1945;-67
2020/12/03 10:19:12;;;;;;;;;;;22.30;53.40;;;;;;5063450;28;1092;-67
2020/12/03 10:21:49;;;;;;;;;;;22.30;53.20;;;;;;5049816;28;1260;-67
2020/12/03 10:24:19;;;;;;;;;;;22.30;53.10;;;;;;5071761;28;1906;-67
2020/12/03 10:26:48;;;;;;;;;;;22.40;53.00;;;;;;5065523;28;1141;-67
2020/12/03 10:29:25;;;;;;;;;;;22.50;53.00;;;;;;5052389;28;1095;-67
2020/12/03 10:31:51;;;;;;;;;;;22.40;52.80;;;;;;5052459;28;1255;-67
2020/12/03 10:34:16;;;;;;;;;;;22.50;52.80;;;;;;5050859;28;1365;-67
2020/12/03 10:36:52;;;;;;;;;;;22.50;52.80;;;;;;5067807;28;1122;-66
2020/12/03 10:39:18;;;;;;;;;;;22.50;52.70;;;;;;5067213;28;1146;-66
2020/12/03 10:41:45;;;;;;;;;;;22.50;52.70;;;;;;5067646;28;1366;-67
2020/12/03 10:44:14;;;;;;;;;;;22.50;52.70;;;;;;5050978;28;1953;-67
2020/12/03 10:46:41;;;;;;;;;;;22.50;52.70;;;;;;5067553;28;1078;-67
2020/12/03 10:49:06;;;;;;;;;;;22.50;52.70;;;;;;5067615;28;1047;-66
2020/12/03 10:51:31;;;;;;;;;;;22.50;52.70;;;;;;5062380;28;1343;-67
2020/12/03 10:53:57;;;;;;;;;;;22.50;52.70;;;;;;5043827;28;1246;-67
2020/12/03 10:56:34;;;;;;;;;;;22.50;52.70;;;;;;5066808;28;1063;-67
2020/12/03 10:59:07;;;;;;;;;;;22.50;52.70;;;;;;5051667;28;1195;-67
2020/12/03 11:01:33;;;;;;;;;;;22.50;52.80;;;;;;5051752;28;1256;-67
2020/12/03 11:04:03;;;;;;;;;;;22.50;52.80;;;;;;5067070;28;1913;-67
2020/12/03 11:06:32;;;;;;;;;;;22.50;52.80;;;;;;5067047;28;1154;-66
2020/12/03 11:09:01;;;;;;;;;;;22.40;52.80;;;;;;5067019;28;1038;-66
2020/12/03 11:11:33;;;;;;;;;;;22.40;52.90;;;;;;5051181;28;1320;-67
2020/12/03 11:13:59;;;;;;;;;;;22.40;52.90;;;;;;5050467;28;1175;-67
2020/12/03 11:16:25;;;;;;;;;;;22.40;53.00;;;;;;5051508;28;1131;-66
2020/12/03 11:18:51;;;;;;;;;;;22.40;53.00;;;;;;5067196;28;1067;-68
2020/12/03 11:21:23;;;;;;;;;;;22.40;53.00;;;;;;5057807;28;1526;-67
2020/12/03 11:24:09;;;;;;;;;;;22.40;53.00;;;;;;5065860;28;1953;-65
2020/12/03 11:26:34;;;;;;;;;;;22.40;53.10;;;;;;5066057;28;1206;-65
2020/12/03 11:29:10;;;;;;;;;;;22.40;53.10;;;;;;5050530;28;1386;-65
2020/12/03 11:31:35;;;;;;;;;;;22.40;53.10;;;;;;5052003;28;1256;-65
2020/12/03 11:34:01;;;;;;;;;;;22.40;53.00;;;;;;5052074;28;1031;-65
2020/12/03 11:36:33;;;;;;;;;;;22.50;52.90;;;;;;5051476;28;1118;-65
2020/12/03 11:39:00;;;;;;;;;;;22.50;52.90;;;;;;5051129;28;1111;-65
2020/12/03 11:41:41;;;;;;;;;;;22.60;52.80;;;;;;5050446;28;1280;-65
2020/12/03 11:49:07;;;;;;;;;;;22.60;52.60;;;;;;5065472;28;1055;-65
2020/12/03 11:51:34;;;;;;;;;;;22.60;52.50;;;;;;5051515;28;1272;-66
2020/12/03 11:54:03;;;;;;;;;;;22.70;52.50;;;;;;5051481;28;1243;-66
2020/12/03 11:56:29;;;;;;;;;;;22.70;52.50;;;;;;5066784;28;1074;-66
2020/12/03 11:59:30;;;;;;;;;;;22.70;52.50;;;;;;5050787;28;1055;-66
2020/12/03 12:01:56;;;;;;;;;;;22.70;52.50;;;;;;5058181;28;1362;-66
2020/12/03 12:04:27;;;;;;;;;;;22.70;52.50;;;;;;5028820;28;1963;-65
2020/12/03 12:09:30;;;;;;;;;;;22.70;52.50;;;;;;5066827;28;1346;-66
2020/12/03 12:11:56;;;;;;;;;;;22.70;52.50;;;;;;5050166;28;1311;-66
2020/12/03 12:14:21;;;;;;;;;;;22.60;52.50;;;;;;5052013;28;1118;-66
2020/12/03 12:16:47;;;;;;;;;;;22.60;52.50;;;;;;5067429;28;1063;-66
2020/12/03 12:19:12;;;;;;;;;;;22.60;52.60;;;;;;5050753;28;1118;-66
2020/12/03 12:21:38;;;;;;;;;;;22.60;52.60;;;;;;5051799;28;1351;-66
2020/12/03 12:24:03;;;;;;;;;;;22.60;52.70;;;;;;5051625;28;1906;-65
2020/12/03 12:26:29;;;;;;;;;;;22.60;52.70;;;;;;5050067;28;1315;-66
2020/12/03 12:28:55;;;;;;;;;;;22.50;52.70;;;;;;5041814;28;1442;-66
2020/12/03 12:31:21;;;;;;;;;;;22.50;53.30;;;;;;5050514;28;1288;-66
2020/12/03 12:33:47;;;;;;;;;;;22.50;52.80;;;;;;5054635;28;1599;-66
2020/12/03 12:36:12;;;;;;;;;;;22.50;52.80;;;;;;5050026;28;1328;-65
2020/12/03 12:38:38;;;;;;;;;;;22.50;52.90;;;;;;5049079;28;1916;-65
2020/12/03 12:41:03;;;;;;;;;;;22.50;52.90;;;;;;5052367;28;1987;-66
2020/12/03 12:43:29;;;;;;;;;;;22.40;52.90;;;;;;5051708;28;1391;-65
2020/12/03 12:45:54;;;;;;;;;;;22.40;53.00;;;;;;5047867;28;1980;-66
2020/12/03 12:48:21;;;;;;;;;;;22.40;53.00;;;;;;5052793;28;1206;-66
2020/12/03 12:50:46;;;;;;;;;;;22.40;53.10;;;;;;5054338;28;1381;-65
2020/12/03 12:53:12;;;;;;;;;;;22.40;53.10;;;;;;5055482;28;1393;-65
2020/12/03 12:55:37;;;;;;;;;;;22.40;53.20;;;;;;5054213;28;2024;-66
2020/12/03 12:58:02;;;;;;;;;;;22.30;53.10;;;;;;5034331;28;1471;-66
2020/12/03 13:00:28;;;;;;;;;;;22.30;53.20;;;;;;5060315;28;1642;-65
2020/12/03 13:02:53;;;;;;;;;;;22.30;53.20;;;;;;5075571;28;1145;-65
2020/12/03 13:05:19;;;;;;;;;;;22.30;53.20;;;;;;5075810;28;1933;-65
2020/12/03 13:07:44;;;;;;;;;;;22.30;53.20;;;;;;5073937;28;1586;-66
2020/12/03 13:10:10;;;;;;;;;;;22.30;53.30;;;;;;5075515;28;1335;-66
2020/12/03 13:12:35;;;;;;;;;;;22.30;53.40;;;;;;5073908;28;1390;-65
2020/12/03 13:15:01;;;;;;;;;;;22.20;53.40;;;;;;5073576;28;1676;-65
2020/12/03 13:17:26;;;;;;;;;;;22.20;53.40;;;;;;5074318;28;1317;-66
2020/12/03 13:19:52;;;;;;;;;;;22.20;53.40;;;;;;5069089;28;1227;-66
2020/12/03 13:22:17;;;;;;;;;;;22.20;53.50;;;;;;5055923;28;1637;-65
2020/12/03 13:24:43;;;;;;;;;;;22.20;53.50;;;;;;5070401;28;1898;-66
2020/12/03 13:27:08;;;;;;;;;;;22.20;53.60;;;;;;5066696;28;1441;-66
2020/12/03 13:29:34;;;;;;;;;;;22.20;53.60;;;;;;5054238;28;1256;-65
2020/12/03 13:31:59;;;;;;;;;;;22.10;53.60;;;;;;5072411;28;1637;-65
2020/12/03 13:34:25;;;;;;;;;;;22.10;53.70;;;;;;5074240;28;1397;-65
2020/12/03 13:36:50;;;;;;;;;;;22.10;53.70;;;;;;5074181;28;1267;-65
2020/12/03 13:39:16;;;;;;;;;;;22.10;53.70;;;;;;5075584;28;1385;-65
2020/12/03 13:41:41;;;;;;;;;;;22.10;53.80;;;;;;5074169;28;1423;-66
2020/12/03 13:44:07;;;;;;;;;;;22.10;53.90;;;;;;5075594;28;1906;-66
2020/12/03 13:46:39;;;;;;;;;;;22.10;53.80;;;;;;5073778;28;917;-66
2020/12/03 13:49:05;;;;;;;;;;;22.00;53.90;;;;;;5074327;28;1358;-65
2020/12/03 13:51:31;;;;;;;;;;;22.00;53.90;;;;;;5067208;28;1556;-66
2020/12/03 13:53:56;;;;;;;;;;;22.00;53.90;;;;;;5054043;28;1350;-65
2020/12/03 13:56:22;;;;;;;;;;;22.00;53.90;;;;;;5069962;28;1616;-66
2020/12/03 13:58:47;;;;;;;;;;;21.90;53.90;;;;;;5069614;28;1498;-66
2020/12/03 14:01:13;;;;;;;;;;;21.90;54.00;;;;;;5052996;28;1315;-65
2020/12/03 14:03:38;;;;;;;;;;;21.90;54.00;;;;;;5058517;28;1927;-64
2020/12/03 14:06:04;;;;;;;;;;;21.90;54.00;;;;;;5054002;28;1241;-65
2020/12/03 14:08:29;;;;;;;;;;;21.90;54.00;;;;;;5052592;28;1268;-65
2020/12/03 14:10:55;;;;;;;;;;;21.90;54.10;;;;;;5053254;28;1344;-65
2020/12/03 14:13:20;;;;;;;;;;;21.90;54.10;;;;;;5053908;28;1245;-65
2020/12/03 14:15:46;;;;;;;;;;;21.90;54.10;;;;;;5060633;28;1453;-65
2020/12/03 14:18:11;;;;;;;;;;;21.80;54.20;;;;;;5051509;28;1480;-66
2020/12/03 14:20:37;;;;;;;;;;;21.80;54.10;;;;;;5059406;28;1428;-66
2020/12/03 14:23:03;;;;;;;;;;;21.80;54.20;;;;;;5069990;28;1325;-66
2020/12/03 14:25:28;;;;;;;;;;;21.80;54.20;;;;;;5069563;28;1910;-65
2020/12/03 14:27:54;;;;;;;;;;;21.80;54.30;;;;;;5059770;28;1894;-65
2020/12/03 14:30:19;;;;;;;;;;;21.80;54.30;;;;;;5051925;28;1483;-66
2020/12/03 14:32:45;;;;;;;;;;;21.80;54.30;;;;;;5073643;28;1414;-65
2020/12/03 14:35:10;;;;;;;;;;;21.80;54.40;;;;;;5074299;28;1681;-65
2020/12/03 14:37:37;;;;;;;;;;;21.80;54.30;;;;;;5055865;28;1598;-65
2020/12/03 14:40:04;;;;;;;;;;;21.70;54.30;;;;;;5049997;28;1848;-65
2020/12/03 14:42:29;;;;;;;;;;;21.70;54.40;;;;;;5067629;28;1663;-65
2020/12/03 14:44:55;;;;;;;;;;;21.70;54.40;;;;;;5049346;28;1957;-65